^^
Meteo Knjazevac Station Historical Data
Daily Summary for August 5, 2021 Units:  Both    English   Metric
Daily Weekly Monthly Yearly Custom
  High: Low: Average:
Temperature: 73 °F /  22.8 °C 36.7 °F /  2.6 °C 54.8 °F /  12.7 °C
Dew Point: 53.4 °F /  11.9 °C 34 °F /  1.1 °C 44.9 °F /  7.2 °C
Humidity: 96% 49% 72%
Wind Speed: 8mph /  12.9km/h - 2.1mph /  3.4km/h
Wind Gust: 15mph /  24.1km/h - -
Wind- - SSE
Pressure: 30.28 in /  1025.3 hPa 30.18 in /  1021.9 hPa -
Precipitation: 0.00 in /  0 mm    
Historical Graphs
 
 
Tabular Data for August 5, 2021
Time Temperature Dew Point Pressure Wind Wind Speed Wind Gust Humidity Rainfall Rate (Hourly) solar Conditions
00:00 47.5 °F /  8.6 °C 42.6 °F /  5.9 °C 30.26in /  1024.6hPa Calm   1mph /  1.6km/h 83% 0.00in /  0mm 0 W/m2
00:10 46.8 °F /  8.2 °C 40.9 °F /  4.9 °C 30.26in /  1024.6hPa Calm     80% 0.00in /  0mm 0 W/m2
00:20 46.4 °F /  8 °C 40.9 °F /  4.9 °C 30.26in /  1024.6hPa Calm   1mph /  1.6km/h 81% 0.00in /  0mm 0 W/m2
00:30 45.9 °F /  7.7 °C 40.4 °F /  4.7 °C 30.26in /  1024.6hPa Calm   2mph /  3.2km/h 81% 0.00in /  0mm 0 W/m2
00:40 45.5 °F /  7.5 °C 40.9 °F /  4.9 °C 30.26in /  1024.6hPa Calm   2mph /  3.2km/h 84% 0.00in /  0mm 0 W/m2
00:50 45.1 °F /  7.3 °C 40.6 °F /  4.8 °C 30.26in /  1024.6hPa Calm   1mph /  1.6km/h 84% 0.00in /  0mm 0 W/m2
01:00 45 °F /  7.2 °C 40.7 °F /  4.8 °C 30.26in /  1024.6hPa Calm   3mph /  4.8km/h 85% 0.00in /  0mm 0 W/m2
01:10 44.6 °F /  7 °C 40.4 °F /  4.7 °C 30.26in /  1024.6hPa Calm     85% 0.00in /  0mm 0 W/m2
01:20 44.2 °F /  6.8 °C 39.7 °F /  4.3 °C 30.26in /  1024.6hPa Calm   1mph /  1.6km/h 84% 0.00in /  0mm 0 W/m2
01:30 43.9 °F /  6.6 °C 39.4 °F /  4.1 °C 30.26in /  1024.6hPa Calm   2mph /  3.2km/h 84% 0.00in /  0mm 0 W/m2
01:40 43.4 °F /  6.3 °C 38.9 °F /  3.8 °C 30.26in /  1024.6hPa NW 1mph /  1.6km/h 2mph /  3.2km/h 84% 0.00in /  0mm 0 W/m2
01:50 43.3 °F /  6.3 °C 39.4 °F /  4.1 °C 30.26in /  1024.6hPa Calm   1mph /  1.6km/h 86% 0.00in /  0mm 0 W/m2
02:00 43 °F /  6.1 °C 38.8 °F /  3.8 °C 30.26in /  1024.6hPa Calm   1mph /  1.6km/h 85% 0.00in /  0mm 0 W/m2
02:10 42.8 °F /  6 °C 38.6 °F /  3.7 °C 30.26in /  1024.6hPa Calm   2mph /  3.2km/h 85% 0.00in /  0mm 0 W/m2
02:20 42.3 °F /  5.7 °C 38.1 °F /  3.4 °C 30.26in /  1024.6hPa Calm   2mph /  3.2km/h 85% 0.00in /  0mm 0 W/m2
02:30 42.1 °F /  5.6 °C 37.9 °F /  3.3 °C 30.26in /  1024.6hPa Calm   2mph /  3.2km/h 85% 0.00in /  0mm 0 W/m2
02:40 41.7 °F /  5.4 °C 37.5 °F /  3.1 °C 30.26in /  1024.6hPa Calm   1mph /  1.6km/h 85% 0.00in /  0mm 0 W/m2
02:50 41.4 °F /  5.2 °C 37.2 °F /  2.9 °C 30.26in /  1024.6hPa Calm   1mph /  1.6km/h 85% 0.00in /  0mm 0 W/m2
03:00 41.2 °F /  5.1 °C 37.9 °F /  3.3 °C 30.26in /  1024.6hPa WNW 2mph /  3.2km/h 5mph /  8km/h 88% 0.00in /  0mm 0 W/m2
03:10 41.2 °F /  5.1 °C 38.5 °F /  3.6 °C 30.26in /  1024.6hPa Calm   3mph /  4.8km/h 90% 0.00in /  0mm 0 W/m2
03:20 41 °F /  5 °C 38 °F /  3.3 °C 30.26in /  1024.6hPa Calm     89% 0.00in /  0mm 0 W/m2
03:30 40.6 °F /  4.8 °C 37.4 °F /  3 °C 30.26in /  1024.6hPa NW 2mph /  3.2km/h 2mph /  3.2km/h 88% 0.00in /  0mm 0 W/m2
03:40 40.5 °F /  4.7 °C 37.2 °F /  2.9 °C 30.26in /  1024.6hPa Calm   2mph /  3.2km/h 88% 0.00in /  0mm 0 W/m2
03:50 40.3 °F /  4.6 °C 37 °F /  2.8 °C 30.26in /  1024.6hPa Calm   2mph /  3.2km/h 88% 0.00in /  0mm 0 W/m2
04:00 40.1 °F /  4.5 °C 36.8 °F /  2.7 °C 30.26in /  1024.6hPa Calm   1mph /  1.6km/h 88% 0.00in /  0mm 0 W/m2
04:10 39.7 °F /  4.3 °C 36.5 °F /  2.5 °C 30.26in /  1024.6hPa Calm   1mph /  1.6km/h 88% 0.00in /  0mm 0 W/m2
04:20 39.4 °F /  4.1 °C 36.1 °F /  2.3 °C 30.26in /  1024.6hPa Calm   1mph /  1.6km/h 88% 0.00in /  0mm 0 W/m2
04:30 39.2 °F /  4 °C 35.9 °F /  2.2 °C 30.26in /  1024.6hPa NW 1mph /  1.6km/h 2mph /  3.2km/h 88% 0.00in /  0mm 0 W/m2
04:40 39 °F /  3.9 °C 36.3 °F /  2.4 °C 30.26in /  1024.6hPa WNW 1mph /  1.6km/h 3mph /  4.8km/h 90% 0.00in /  0mm 0 W/m2
04:50 39 °F /  3.9 °C 36.3 °F /  2.4 °C 30.26in /  1024.6hPa Calm   2mph /  3.2km/h 90% 0.00in /  0mm 0 W/m2
05:00 38.9 °F /  3.8 °C 36.2 °F /  2.3 °C 30.26in /  1024.6hPa Calm   1mph /  1.6km/h 90% 0.00in /  0mm 0 W/m2
05:10 38.7 °F /  3.7 °C 35.7 °F /  2.1 °C 30.26in /  1024.6hPa Calm   1mph /  1.6km/h 89% 0.00in /  0mm 0 W/m2
05:20 38.5 °F /  3.6 °C 35.5 °F /  1.9 °C 30.27in /  1024.9hPa Calm   2mph /  3.2km/h 89% 0.00in /  0mm 0 W/m2
05:30 38.3 °F /  3.5 °C 35.6 °F /  2 °C 30.27in /  1024.9hPa Calm   2mph /  3.2km/h 90% 0.00in /  0mm 0 W/m2
05:40 38.1 °F /  3.4 °C 35.4 °F /  1.9 °C 30.27in /  1024.9hPa Calm   1mph /  1.6km/h 90% 0.00in /  0mm 0 W/m2
05:50 37.8 °F /  3.2 °C 34.8 °F /  1.6 °C 30.27in /  1024.9hPa Calm   2mph /  3.2km/h 89% 0.00in /  0mm 0 W/m2
06:00 37.6 °F /  3.1 °C 34.9 °F /  1.6 °C 30.27in /  1024.9hPa Calm   2mph /  3.2km/h 90% 0.00in /  0mm 0 W/m2
06:10 37.6 °F /  3.1 °C 34.9 °F /  1.6 °C 30.27in /  1024.9hPa Calm   2mph /  3.2km/h 90% 0.00in /  0mm 0 W/m2
06:20 37.6 °F /  3.1 °C 35.2 °F /  1.8 °C 30.27in /  1024.9hPa Calm     91% 0.00in /  0mm 0 W/m2
06:30 37.6 °F /  3.1 °C 35.7 °F /  2.1 °C 30.27in /  1024.9hPa Calm     93% 0.00in /  0mm 0 W/m2
06:40 37.4 °F /  3 °C 35 °F /  1.7 °C 30.28in /  1025.3hPa Calm   2mph /  3.2km/h 91% 0.00in /  0mm 7 W/m2
06:50 37.2 °F /  2.9 °C 34.6 °F /  1.4 °C 30.28in /  1025.3hPa WNW 1mph /  1.6km/h 2mph /  3.2km/h 90% 0.00in /  0mm 17 W/m2
07:00 36.9 °F /  2.7 °C 34.2 °F /  1.2 °C 30.28in /  1025.3hPa Calm   2mph /  3.2km/h 90% 0.00in /  0mm 26 W/m2
07:10 36.9 °F /  2.7 °C 34.2 °F /  1.2 °C 30.28in /  1025.3hPa Calm   1mph /  1.6km/h 90% 0.00in /  0mm 37 W/m2
07:20 36.7 °F /  2.6 °C 34 °F /  1.1 °C 30.28in /  1025.3hPa Calm   2mph /  3.2km/h 90% 0.00in /  0mm 65 W/m2
07:30 36.9 °F /  2.7 °C 34.5 °F /  1.4 °C 30.28in /  1025.3hPa Calm   2mph /  3.2km/h 91% 0.00in /  0mm 89 W/m2
07:40 37 °F /  2.8 °C 34.6 °F /  1.4 °C 30.28in /  1025.3hPa Calm   2mph /  3.2km/h 91% 0.00in /  0mm 113 W/m2
07:50 37.2 °F /  2.9 °C 35.4 °F /  1.9 °C 30.28in /  1025.3hPa NW 2mph /  3.2km/h 4mph /  6.4km/h 93% 0.00in /  0mm 137 W/m2
08:00 37.9 °F /  3.3 °C 36.6 °F /  2.6 °C 30.28in /  1025.3hPa WNW 2mph /  3.2km/h 4mph /  6.4km/h 95% 0.00in /  0mm 170 W/m2
08:10 38.5 °F /  3.6 °C 37.2 °F /  2.9 °C 30.28in /  1025.3hPa WNW 1mph /  1.6km/h 3mph /  4.8km/h 95% 0.00in /  0mm 125 W/m2
08:20 39.2 °F /  4 °C 38.2 °F /  3.4 °C 30.28in /  1025.3hPa West 1mph /  1.6km/h 2mph /  3.2km/h 96% 0.00in /  0mm 147 W/m2
08:30 40.6 °F /  4.8 °C 39.6 °F /  4.2 °C 30.28in /  1025.3hPa Calm   2mph /  3.2km/h 96% 0.00in /  0mm 252 W/m2
08:40 42.6 °F /  5.9 °C 41.6 °F /  5.3 °C 30.28in /  1025.3hPa NW 1mph /  1.6km/h 2mph /  3.2km/h 96% 0.00in /  0mm 285 W/m2
08:50 44.8 °F /  7.1 °C 43.2 °F /  6.2 °C 30.28in /  1025.3hPa SW 1mph /  1.6km/h 2mph /  3.2km/h 94% 0.00in /  0mm 315 W/m2
09:00 46.4 °F /  8 °C 43.9 °F /  6.6 °C 30.28in /  1025.3hPa SW 1mph /  1.6km/h 3mph /  4.8km/h 91% 0.00in /  0mm 344 W/m2
09:10 47.8 °F /  8.8 °C 44.8 °F /  7.1 °C 30.28in /  1025.3hPa South 1mph /  1.6km/h 3mph /  4.8km/h 89% 0.00in /  0mm 374 W/m2
09:20 49.6 °F /  9.8 °C 45.6 °F /  7.6 °C 30.28in /  1025.3hPa North 3mph /  4.8km/h 6mph /  9.7km/h 86% 0.00in /  0mm 408 W/m2
09:30 51.1 °F /  10.6 °C 46.4 °F /  8 °C 30.28in /  1025.3hPa NNE 3mph /  4.8km/h 8mph /  12.9km/h 84% 0.00in /  0mm 435 W/m2
09:40 52.3 °F /  11.3 °C 46.7 °F /  8.2 °C 30.28in /  1025.3hPa North 2mph /  3.2km/h 7mph /  11.3km/h 81% 0.00in /  0mm 463 W/m2
09:50 53.4 °F /  11.9 °C 47.4 °F /  8.6 °C 30.28in /  1025.3hPa North 2mph /  3.2km/h 8mph /  12.9km/h 80% 0.00in /  0mm 171 W/m2
10:00 54.7 °F /  12.6 °C 48 °F /  8.9 °C 30.28in /  1025.3hPa North 2mph /  3.2km/h 12mph /  19.3km/h 78% 0.00in /  0mm 160 W/m2
10:10 55.8 °F /  13.2 °C 48.7 °F /  9.3 °C 30.28in /  1025.3hPa NNE 5mph /  8km/h 12mph /  19.3km/h 77% 0.00in /  0mm 527 W/m2
10:20 56.7 °F /  13.7 °C 48.5 °F /  9.2 °C 30.28in /  1025.3hPa NNE 7mph /  11.3km/h 10mph /  16.1km/h 74% 0.00in /  0mm 545 W/m2
10:30 57.7 °F /  14.3 °C 49.1 °F /  9.5 °C 30.28in /  1025.3hPa NNE 3mph /  4.8km/h 10mph /  16.1km/h 73% 0.00in /  0mm 562 W/m2
10:40 58.8 °F /  14.9 °C 49.8 °F /  9.9 °C 30.28in /  1025.3hPa North 1mph /  1.6km/h 9mph /  14.5km/h 72% 0.00in /  0mm 578 W/m2
10:50 59.9 °F /  15.5 °C 49.7 °F /  9.8 °C 30.28in /  1025.3hPa NE 7mph /  11.3km/h 13mph /  20.9km/h 69% 0.00in /  0mm 593 W/m2
11:00 61 °F /  16.1 °C 50.3 °F /  10.2 °C 30.28in /  1025.3hPa NNE 5mph /  8km/h 12mph /  19.3km/h 68% 0.00in /  0mm 605 W/m2
11:10 62.1 °F /  16.7 °C 51 °F /  10.6 °C 30.27in /  1024.9hPa NNE 6mph /  9.7km/h 12mph /  19.3km/h 67% 0.00in /  0mm 617 W/m2
11:20 63.1 °F /  17.3 °C 51.2 °F /  10.7 °C 30.27in /  1024.9hPa North 2mph /  3.2km/h 9mph /  14.5km/h 65% 0.00in /  0mm 627 W/m2
11:30 64.2 °F /  17.9 °C 51.4 °F /  10.8 °C 30.26in /  1024.6hPa North 5mph /  8km/h 14mph /  22.5km/h 63% 0.00in /  0mm 635 W/m2
11:40 65.5 °F /  18.6 °C 52.1 °F /  11.2 °C 30.26in /  1024.6hPa North 6mph /  9.7km/h 12mph /  19.3km/h 62% 0.00in /  0mm 642 W/m2
11:50 66.2 °F /  19 °C 51.9 °F /  11.1 °C 30.26in /  1024.6hPa North 5mph /  8km/h 9mph /  14.5km/h 60% 0.00in /  0mm 575 W/m2
12:00 67.1 °F /  19.5 °C 51.8 °F /  11 °C 30.26in /  1024.6hPa NNW 2mph /  3.2km/h 11mph /  17.7km/h 58% 0.00in /  0mm 184 W/m2
12:10 68 °F /  20 °C 52.7 °F /  11.5 °C 30.26in /  1024.6hPa NNW 2mph /  3.2km/h 8mph /  12.9km/h 58% 0.00in /  0mm 315 W/m2
12:20 68.7 °F /  20.4 °C 51.9 °F /  11.1 °C 30.25in /  1024.3hPa North 8mph /  12.9km/h 14mph /  22.5km/h 55% 0.00in /  0mm 653 W/m2
12:30 69.4 °F /  20.8 °C 52.6 °F /  11.4 °C 30.25in /  1024.3hPa North 3mph /  4.8km/h 12mph /  19.3km/h 55% 0.00in /  0mm 651 W/m2
12:40 70 °F /  21.1 °C 52.6 °F /  11.4 °C 30.25in /  1024.3hPa North 7mph /  11.3km/h 13mph /  20.9km/h 54% 0.00in /  0mm 648 W/m2
12:50 70.7 °F /  21.5 °C 53.2 °F /  11.8 °C 30.24in /  1023.9hPa North 3mph /  4.8km/h 13mph /  20.9km/h 54% 0.00in /  0mm 644 W/m2
13:00 71.4 °F /  21.9 °C 53.4 °F /  11.9 °C 30.24in /  1023.9hPa North 7mph /  11.3km/h 13mph /  20.9km/h 53% 0.00in /  0mm 637 W/m2
13:10 71.8 °F /  22.1 °C 53.2 °F /  11.8 °C 30.23in /  1023.6hPa North 5mph /  8km/h 14mph /  22.5km/h 52% 0.00in /  0mm 630 W/m2
13:20 72 °F /  22.2 °C 53.4 °F /  11.9 °C 30.23in /  1023.6hPa North 7mph /  11.3km/h 14mph /  22.5km/h 52% 0.00in /  0mm 620 W/m2
13:30 72 °F /  22.2 °C 53.4 °F /  11.9 °C 30.23in /  1023.6hPa North 5mph /  8km/h 15mph /  24.1km/h 52% 0.00in /  0mm 609 W/m2
13:40 72.1 °F /  22.3 °C 52.5 °F /  11.4 °C 30.22in /  1023.2hPa North 6mph /  9.7km/h 15mph /  24.1km/h 50% 0.00in /  0mm 597 W/m2
13:50 72.3 °F /  22.4 °C 52.6 °F /  11.4 °C 30.21in /  1022.9hPa North 5mph /  8km/h 13mph /  20.9km/h 50% 0.00in /  0mm 583 W/m2
14:00 72.5 °F /  22.5 °C 52.8 °F /  11.6 °C 30.21in /  1022.9hPa North 3mph /  4.8km/h 14mph /  22.5km/h 50% 0.00in /  0mm 568 W/m2
14:10 72.7 °F /  22.6 °C 53 °F /  11.7 °C 30.20in /  1022.6hPa North 7mph /  11.3km/h 14mph /  22.5km/h 50% 0.00in /  0mm 551 W/m2
14:20 72.7 °F /  22.6 °C 53 °F /  11.7 °C 30.20in /  1022.6hPa North 3mph /  4.8km/h 13mph /  20.9km/h 50% 0.00in /  0mm 533 W/m2
14:30 72.9 °F /  22.7 °C 53.1 °F /  11.7 °C 30.19in /  1022.2hPa North 6mph /  9.7km/h 12mph /  19.3km/h 50% 0.00in /  0mm 514 W/m2
14:40 73 °F /  22.8 °C 53.3 °F /  11.8 °C 30.19in /  1022.2hPa North 6mph /  9.7km/h 12mph /  19.3km/h 50% 0.00in /  0mm 493 W/m2
14:50 73 °F /  22.8 °C 52.7 °F /  11.5 °C 30.19in /  1022.2hPa North 3mph /  4.8km/h 14mph /  22.5km/h 49% 0.00in /  0mm 471 W/m2
15:00 73 °F /  22.8 °C 52.7 °F /  11.5 °C 30.19in /  1022.2hPa North 6mph /  9.7km/h 13mph /  20.9km/h 49% 0.00in /  0mm 448 W/m2
15:10 73 °F /  22.8 °C 52.7 °F /  11.5 °C 30.19in /  1022.2hPa North 8mph /  12.9km/h 13mph /  20.9km/h 49% 0.00in /  0mm 425 W/m2
15:20 73 °F /  22.8 °C 52.7 °F /  11.5 °C 30.19in /  1022.2hPa North 8mph /  12.9km/h 13mph /  20.9km/h 49% 0.00in /  0mm 400 W/m2
15:30 72.7 °F /  22.6 °C 52.4 °F /  11.3 °C 30.18in /  1021.9hPa North 5mph /  8km/h 13mph /  20.9km/h 49% 0.00in /  0mm 374 W/m2
15:40 72.7 °F /  22.6 °C 52.4 °F /  11.3 °C 30.19in /  1022.2hPa North 5mph /  8km/h 12mph /  19.3km/h 49% 0.00in /  0mm 348 W/m2
15:50 72.5 °F /  22.5 °C 52.2 °F /  11.2 °C 30.19in /  1022.2hPa North 2mph /  3.2km/h 8mph /  12.9km/h 49% 0.00in /  0mm 321 W/m2
16:00 72.5 °F /  22.5 °C 52.2 °F /  11.2 °C 30.19in /  1022.2hPa North 2mph /  3.2km/h 9mph /  14.5km/h 49% 0.00in /  0mm 293 W/m2
16:10 72.3 °F /  22.4 °C 52.1 °F /  11.2 °C 30.19in /  1022.2hPa NW 2mph /  3.2km/h 8mph /  12.9km/h 49% 0.00in /  0mm 265 W/m2
16:20 72 °F /  22.2 °C 51.8 °F /  11 °C 30.18in /  1021.9hPa NNE 3mph /  4.8km/h 10mph /  16.1km/h 49% 0.00in /  0mm 237 W/m2
16:30 71.8 °F /  22.1 °C 52.1 °F /  11.2 °C 30.19in /  1022.2hPa NE 3mph /  4.8km/h 10mph /  16.1km/h 50% 0.00in /  0mm 206 W/m2
16:40 71.4 °F /  21.9 °C 51.8 °F /  11 °C 30.19in /  1022.2hPa North 1mph /  1.6km/h 8mph /  12.9km/h 50% 0.00in /  0mm 178 W/m2
16:50 71.1 °F /  21.7 °C 52.5 °F /  11.4 °C 30.19in /  1022.2hPa WNW 1mph /  1.6km/h 7mph /  11.3km/h 52% 0.00in /  0mm 146 W/m2
17:00 70.5 °F /  21.4 °C 52 °F /  11.1 °C 30.19in /  1022.2hPa North 3mph /  4.8km/h 8mph /  12.9km/h 52% 0.00in /  0mm 118 W/m2
17:10 70 °F /  21.1 °C 51.5 °F /  10.8 °C 30.19in /  1022.2hPa WNW 2mph /  3.2km/h 7mph /  11.3km/h 52% 0.00in /  0mm 92 W/m2
17:20 69.4 °F /  20.8 °C 51.5 °F /  10.8 °C 30.19in /  1022.2hPa North 1mph /  1.6km/h 7mph /  11.3km/h 53% 0.00in /  0mm 68 W/m2
17:30 68.7 °F /  20.4 °C 50.9 °F /  10.5 °C 30.19in /  1022.2hPa North 2mph /  3.2km/h 6mph /  9.7km/h 53% 0.00in /  0mm 47 W/m2
17:40 68.2 °F /  20.1 °C 50.9 °F /  10.5 °C 30.19in /  1022.2hPa North 3mph /  4.8km/h 9mph /  14.5km/h 54% 0.00in /  0mm 30 W/m2
17:50 67.5 °F /  19.7 °C 50.2 °F /  10.1 °C 30.19in /  1022.2hPa North 3mph /  4.8km/h 9mph /  14.5km/h 54% 0.00in /  0mm 13 W/m2
18:00 66.9 °F /  19.4 °C 50.2 °F /  10.1 °C 30.19in /  1022.2hPa North 6mph /  9.7km/h 10mph /  16.1km/h 55% 0.00in /  0mm 7 W/m2
18:10 66.4 °F /  19.1 °C 49.7 °F /  9.8 °C 30.19in /  1022.2hPa North 3mph /  4.8km/h 10mph /  16.1km/h 55% 0.00in /  0mm 0 W/m2
18:20 65.8 °F /  18.8 °C 49.2 °F /  9.6 °C 30.20in /  1022.6hPa North 3mph /  4.8km/h 7mph /  11.3km/h 55% 0.00in /  0mm 0 W/m2
18:30 65.3 °F /  18.5 °C 49.7 °F /  9.8 °C 30.19in /  1022.2hPa North 5mph /  8km/h 10mph /  16.1km/h 57% 0.00in /  0mm 0 W/m2
18:40 64.9 °F /  18.3 °C 49.3 °F /  9.6 °C 30.20in /  1022.6hPa North 5mph /  8km/h 11mph /  17.7km/h 57% 0.00in /  0mm 0 W/m2
18:50 64.6 °F /  18.1 °C 49 °F /  9.4 °C 30.21in /  1022.9hPa North 1mph /  1.6km/h 6mph /  9.7km/h 57% 0.00in /  0mm 0 W/m2
19:00 64 °F /  17.8 °C 49 °F /  9.4 °C 30.21in /  1022.9hPa NNE 3mph /  4.8km/h 7mph /  11.3km/h 58% 0.00in /  0mm 0 W/m2
19:10 63.3 °F /  17.4 °C 48.3 °F /  9.1 °C 30.21in /  1022.9hPa North 2mph /  3.2km/h 6mph /  9.7km/h 58% 0.00in /  0mm 0 W/m2
19:20 63 °F /  17.2 °C 48.4 °F /  9.1 °C 30.21in /  1022.9hPa NNW 1mph /  1.6km/h 5mph /  8km/h 59% 0.00in /  0mm 0 W/m2
19:30 62.2 °F /  16.8 °C 49 °F /  9.4 °C 30.21in /  1022.9hPa NE 2mph /  3.2km/h 4mph /  6.4km/h 62% 0.00in /  0mm 0 W/m2
19:40 61.3 °F /  16.3 °C 48.2 °F /  9 °C 30.21in /  1022.9hPa NE 2mph /  3.2km/h 4mph /  6.4km/h 62% 0.00in /  0mm 0 W/m2
19:50 60.6 °F /  15.9 °C 47.9 °F /  8.8 °C 30.21in /  1022.9hPa North 2mph /  3.2km/h 7mph /  11.3km/h 63% 0.00in /  0mm 0 W/m2
20:00 60.3 °F /  15.7 °C 47.6 °F /  8.7 °C 30.22in /  1023.2hPa NE 1mph /  1.6km/h 7mph /  11.3km/h 63% 0.00in /  0mm 0 W/m2
20:10 59.5 °F /  15.3 °C 46.9 °F /  8.3 °C 30.22in /  1023.2hPa NNE 1mph /  1.6km/h 6mph /  9.7km/h 63% 0.00in /  0mm 0 W/m2
20:20 58.6 °F /  14.8 °C 47.7 °F /  8.7 °C 30.22in /  1023.2hPa Calm   5mph /  8km/h 67% 0.00in /  0mm 0 W/m2
20:30 57.9 °F /  14.4 °C 47.4 °F /  8.6 °C 30.23in /  1023.6hPa Calm   2mph /  3.2km/h 68% 0.00in /  0mm 0 W/m2
20:40 57.2 °F /  14 °C 46.7 °F /  8.2 °C 30.23in /  1023.6hPa Calm   3mph /  4.8km/h 68% 0.00in /  0mm 0 W/m2
20:50 56.4 °F /  13.6 °C 46.4 °F /  8 °C 30.23in /  1023.6hPa South 1mph /  1.6km/h 4mph /  6.4km/h 69% 0.00in /  0mm 0 W/m2
21:00 55.7 °F /  13.2 °C 46.1 °F /  7.8 °C 30.24in /  1023.9hPa SSE 1mph /  1.6km/h 3mph /  4.8km/h 70% 0.00in /  0mm 0 W/m2
21:10 54.9 °F /  12.7 °C 46 °F /  7.8 °C 30.24in /  1023.9hPa SSE 1mph /  1.6km/h 4mph /  6.4km/h 72% 0.00in /  0mm 0 W/m2
21:20 54.3 °F /  12.4 °C 45.8 °F /  7.7 °C 30.24in /  1023.9hPa South 1mph /  1.6km/h 4mph /  6.4km/h 73% 0.00in /  0mm 0 W/m2
21:30 54 °F /  12.2 °C 45.9 °F /  7.7 °C 30.24in /  1023.9hPa SSE 2mph /  3.2km/h 3mph /  4.8km/h 74% 0.00in /  0mm 0 W/m2
Knjazevac, Serbia
Compliments of Weather Underground - 2 mb